Time;durP1;ratioP1;P1;durP2;ratioP2;P2;SDS_P1;SDS_P2;PMS_P1;PMS_P2;Temp;Humidity;BMP_temperature;BMP_pressure;BME280_temperature;BME280_humidity;BME280_pressure;Samples;Min_cycle;Max_cycle;Signal;HPM_P1;HPM_P2
2022/06/25 00:01:54;;;;;;;13.07;1.70;;;18.30;78.80;;;;;;5025940;28;20072;-88
2022/06/25 00:07:05;;;;;;;11.43;1.75;;;18.80;99.90;;;;;;5025823;28;20109;-88
2022/06/25 00:09:31;;;;;;;9.38;1.52;;;;;;;;;;5033900;28;20112;-89
2022/06/25 00:14:41;;;;;;;10.40;1.50;;;;;;;;;;5033287;28;20044;-88
2022/06/25 00:17:08;;;;;;;14.23;1.90;;;;;;;;;;5033951;28;20025;-88
2022/06/25 00:19:34;;;;;;;16.02;2.00;;;;;;;;;;5032160;28;20065;-88
2022/06/25 00:21:59;;;;;;;18.02;1.90;;;18.90;93.70;;;;;;5017184;28;20496;-89
2022/06/25 00:24:25;;;;;;;12.07;1.58;;;;;;;;;;5039750;28;20128;-87
2022/06/25 00:26:51;;;;;;;12.18;1.60;;;;;;;;;;5041353;28;20380;-87
2022/06/25 00:29:17;;;;;;;8.98;1.52;;;17.40;99.90;;;;;;5034131;28;20032;-89
2022/06/25 00:31:43;;;;;;;20.15;1.77;;;17.70;99.90;;;;;;5031759;28;20416;-87
2022/06/25 00:34:09;;;;;;;15.57;1.80;;;;;;;;;;5018687;28;20037;-88
2022/06/25 00:36:36;;;;;;;9.80;1.75;;;;;;;;;;5026087;28;20032;-87
2022/06/25 00:39:02;;;;;;;15.75;1.83;;;;;;;;;;5033044;28;20436;-87
2022/06/25 00:41:28;;;;;;;10.68;1.50;;;;;;;;;;5036790;28;20036;-89
2022/06/25 00:43:55;;;;;;;14.95;1.80;;;;;;;;;;5028035;28;20311;-88
2022/06/25 00:46:21;;;;;;;15.95;1.63;;;;;;;;;;5028750;28;20036;-88
2022/06/25 00:48:47;;;;;;;12.13;1.30;;;;;;;;;;5028952;28;20045;-89
2022/06/25 00:51:14;;;;;;;13.15;1.55;;;;;;;;;;5026596;28;20036;-88
2022/06/25 00:53:42;;;;;;;12.40;1.45;;;18.10;80.40;;;;;;5023635;28;20036;-89
2022/06/25 00:56:10;;;;;;;6.82;1.33;;;18.20;82.10;;;;;;5030226;28;20026;-87
2022/06/25 00:58:43;;;;;;;14.18;1.70;;;18.00;80.90;;;;;;5028744;28;20042;-87
2022/06/25 01:01:09;;;;;;;10.30;1.75;;;18.00;78.50;;;;;;5017455;28;20040;-89
2022/06/25 01:03:38;;;;;;;12.25;1.63;;;17.90;82.40;;;;;;5024913;28;20566;-88
2022/06/25 01:06:05;;;;;;;13.10;1.60;;;;;;;;;;5038720;28;20022;-89
2022/06/25 01:08:32;;;;;;;11.88;1.50;;;17.90;99.90;;;;;;5030727;28;20025;-88
2022/06/25 01:10:59;;;;;;;10.73;1.65;;;;;;;;;;5028403;28;20615;-88
2022/06/25 01:13:25;;;;;;;13.10;1.70;;;;;;;;;;5027695;28;20041;-88
2022/06/25 01:15:51;;;;;;;13.20;1.52;;;;;;;;;;5028354;28;20080;-88
2022/06/25 01:18:17;;;;;;;14.55;2.00;;;17.90;84.90;;;;;;5034323;28;20492;-88
2022/06/25 01:20:44;;;;;;;9.23;1.40;;;;;;;;;;5026666;28;20032;-88
2022/06/25 01:23:11;;;;;;;15.63;2.00;;;17.70;82.70;;;;;;5029000;28;20032;-88
2022/06/25 01:25:37;;;;;;;12.15;1.55;;;;;;;;;;5029562;28;20032;-88
2022/06/25 01:28:04;;;;;;;13.73;1.75;;;17.80;82.30;;;;;;5027672;28;20033;-88
2022/06/25 01:30:30;;;;;;;11.95;1.63;;;;;;;;;;5037433;28;20060;-88
2022/06/25 01:32:56;;;;;;;12.68;1.60;;;18.10;99.90;;;;;;5043657;28;20079;-89
2022/06/25 01:35:22;;;;;;;13.13;1.75;;;;;;;;;;5039764;28;20058;-89
2022/06/25 01:37:48;;;;;;;13.40;2.00;;;;;;;;;;5024357;28;20034;-89
2022/06/25 01:40:14;;;;;;;10.95;1.30;;;;;;;;;;5027599;28;20453;-89
2022/06/25 01:42:58;;;;;;;12.70;1.88;;;;;;;;;;5034371;28;20052;-89
2022/06/25 01:45:25;;;;;;;10.88;1.60;;;;;;;;;;5026096;28;20029;-88
2022/06/25 01:47:51;;;;;;;15.43;1.63;;;;;;;;;;5031255;28;20034;-89
2022/06/25 01:50:17;;;;;;;14.00;1.80;;;16.60;99.90;;;;;;5028612;28;20021;-89
2022/06/25 01:52:45;;;;;;;12.57;1.80;;;;;;;;;;5027993;28;20400;-89
2022/06/25 01:55:11;;;;;;;11.45;1.52;;;17.50;99.90;;;;;;5030469;28;20030;-88
2022/06/25 01:57:37;;;;;;;10.70;1.65;;;;;;;;;;5029844;28;20033;-89
2022/06/25 02:00:09;;;;;;;12.30;1.77;;;15.40;77.80;;;;;;5020823;28;20147;-90
2022/06/25 02:02:37;;;;;;;10.52;1.60;;;;;;;;;;5029471;28;20029;-89
2022/06/25 02:05:06;;;;;;;12.40;1.50;;;16.40;99.90;;;;;;5033091;28;20025;-90
2022/06/25 02:07:32;;;;;;;11.18;1.40;;;16.90;94.60;;;;;;5028774;28;20025;-88
2022/06/25 02:09:58;;;;;;;12.52;1.60;;;16.80;98.10;;;;;;5031923;28;20052;-89
2022/06/25 02:12:24;;;;;;;10.63;1.48;;;;;;;;;;5026545;28;20503;-89
2022/06/25 02:14:50;;;;;;;14.32;1.90;;;;;;;;;;5032772;28;20033;-89
2022/06/25 02:17:16;;;;;;;9.75;1.33;;;17.30;99.40;;;;;;5028053;28;20500;-89
2022/06/25 02:19:42;;;;;;;11.85;1.65;;;17.40;98.90;;;;;;5029518;28;20095;-89
2022/06/25 02:22:07;;;;;;;12.32;1.55;;;17.00;99.00;;;;;;5021218;28;20423;-89
2022/06/25 02:24:33;;;;;;;11.57;1.90;;;16.50;98.80;;;;;;5033071;28;20026;-89
2022/06/25 02:26:59;;;;;;;12.48;1.65;;;17.30;99.00;;;;;;5034165;28;20104;-88
2022/06/25 02:29:25;;;;;;;9.65;1.77;;;;;;;;;;5032554;28;20926;-90
2022/06/25 02:31:51;;;;;;;13.50;2.13;;;16.80;98.70;;;;;;5033734;28;20021;-90
2022/06/25 02:34:17;;;;;;;11.93;2.25;;;16.70;97.70;;;;;;5031778;28;20068;-90
2022/06/25 02:36:42;;;;;;;11.32;2.03;;;17.00;99.90;;;;;;5020703;28;20033;-91
2022/06/25 02:39:08;;;;;;;14.88;2.00;;;16.50;97.20;;;;;;5029780;28;20404;-92
2022/06/25 02:41:34;;;;;;;12.23;2.03;;;17.80;99.90;;;;;;5037664;28;20029;-92
2022/06/25 02:43:59;;;;;;;9.13;1.95;;;17.10;99.90;;;;;;5039482;28;20021;-91
2022/06/25 02:46:26;;;;;;;10.70;2.15;;;;;;;;;;5040630;28;20036;-92
2022/06/25 02:48:52;;;;;;;12.23;2.25;;;;;;;;;;5030449;28;20036;-91
2022/06/25 02:51:21;;;;;;;13.52;2.28;;;;;;;;;;5038590;28;20481;-91
2022/06/25 02:53:47;;;;;;;17.00;2.22;;;;;;;;;;5035929;28;20516;-90
2022/06/25 02:58:58;;;;;;;11.98;2.10;;;;;;;;;;5041562;28;20140;-89
2022/06/25 03:01:28;;;;;;;12.75;1.88;;;16.30;84.80;;;;;;5034510;28;20021;-91
2022/06/25 03:03:55;;;;;;;13.30;2.28;;;16.40;86.30;;;;;;5036116;28;20108;-91
2022/06/25 03:06:21;;;;;;;12.27;1.70;;;;;;;;;;5040124;28;20033;-90
2022/06/25 03:08:47;;;;;;;12.10;1.80;;;;;;;;;;5031373;28;20057;-91
2022/06/25 03:11:14;;;;;;;10.40;1.67;;;;;;;;;;5031822;28;20081;-91
2022/06/25 03:13:40;;;;;;;15.68;1.80;;;;;;;;;;5038815;28;20013;-92
2022/06/25 03:16:06;;;;;;;12.13;1.50;;;16.20;86.70;;;;;;5044222;28;20023;-91
2022/06/25 03:18:33;;;;;;;13.50;2.20;;;16.20;86.90;;;;;;5041678;28;20056;-91
2022/06/25 03:21:00;;;;;;;9.23;1.90;;;;;;;;;;5037677;28;20029;-92
2022/06/25 03:23:26;;;;;;;10.35;1.80;;;;;;;;;;5030269;28;20135;-91
2022/06/25 03:25:52;;;;;;;13.30;1.85;;;;;;;;;;5047977;28;20053;-90
2022/06/25 03:28:19;;;;;;;12.02;2.00;;;;;;;;;;5040453;28;20059;-91
2022/06/25 03:30:45;;;;;;;10.98;2.17;;;;;;;;;;5020822;28;20033;-90
2022/06/25 03:33:12;;;;;;;15.43;2.60;;;;;;;;;;5034578;28;20041;-88
2022/06/25 03:35:38;;;;;;;13.23;2.20;;;;;;;;;;5037085;28;20460;-90
2022/06/25 03:38:04;;;;;;;16.50;2.00;;;;;;;;;;5042549;28;20496;-91
2022/06/25 03:40:30;;;;;;;11.68;2.00;;;;;;;;;;5039691;28;20438;-90
2022/06/25 03:42:57;;;;;;;10.30;2.00;;;;;;;;;;5040611;28;20018;-91
2022/06/25 03:45:23;;;;;;;14.65;2.05;;;;;;;;;;5035984;28;20448;-89
2022/06/25 03:47:52;;;;;;;10.80;1.77;;;;;;;;;;5038226;28;20032;-89
2022/06/25 03:50:19;;;;;;;14.57;2.15;;;16.30;85.20;;;;;;5023701;28;20474;-90
2022/06/25 03:52:46;;;;;;;11.35;1.80;;;16.30;84.70;;;;;;5034537;28;20525;-90
2022/06/25 03:55:13;;;;;;;11.73;2.25;;;;;;;;;;5028860;28;20060;-88
2022/06/25 03:57:39;;;;;;;12.13;1.88;;;;;;;;;;5031938;28;20029;-88
2022/06/25 04:00:09;;;;;;;12.82;1.70;;;;;;;;;;5021607;28;20030;-89
2022/06/25 04:02:35;;;;;;;8.93;1.67;;;;;;;;;;5035093;28;20036;-89
2022/06/25 04:05:01;;;;;;;13.38;1.80;;;;;;;;;;5034084;28;20087;-89
2022/06/25 04:07:27;;;;;;;14.27;2.00;;;;;;;;;;5029368;28;20025;-90
2022/06/25 04:09:53;;;;;;;10.60;1.98;;;;;;;;;;5026446;28;20361;-89
2022/06/25 04:12:20;;;;;;;10.38;2.20;;;;;;;;;;5023148;28;20026;-88
2022/06/25 04:14:46;;;;;;;9.10;2.08;;;;;;;;;;5031772;28;20057;-89
2022/06/25 04:17:12;;;;;;;14.93;2.10;;;;;;;;;;5037368;28;20072;-91
2022/06/25 04:19:41;;;;;;;9.45;2.20;;;;;;;;;;5033603;28;20099;-92
2022/06/25 04:22:11;;;;;;;16.98;2.58;;;16.50;83.00;;;;;;5039837;28;20631;-89
2022/06/25 04:24:39;;;;;;;10.55;2.10;;;16.50;83.00;;;;;;5020035;28;20033;-90
2022/06/25 04:27:05;;;;;;;15.02;2.35;;;16.20;99.90;;;;;;5031825;28;20443;-90
2022/06/25 04:29:31;;;;;;;11.07;2.20;;;17.10;98.30;;;;;;5030774;28;20034;-92
2022/06/25 04:32:01;;;;;;;11.57;2.35;;;12.60;97.20;;;;;;5032525;28;20036;-90
2022/06/25 04:34:27;;;;;;;17.17;2.60;;;17.20;97.70;;;;;;5036173;28;20039;-91
2022/06/25 04:36:53;;;;;;;10.77;2.00;;;16.50;97.80;;;;;;5030171;28;20029;-89
2022/06/25 04:39:19;;;;;;;12.32;1.70;;;16.20;84.50;;;;;;5033103;28;20036;-89
2022/06/25 04:41:47;;;;;;;13.35;1.88;;;16.50;83.60;;;;;;5041349;28;20531;-91
2022/06/25 04:44:15;;;;;;;16.70;2.10;;;;;;;;;;5032594;28;20120;-91
2022/06/25 04:46:42;;;;;;;15.45;2.00;;;15.40;96.60;;;;;;5026140;28;20033;-89
2022/06/25 04:49:07;;;;;;;12.95;1.70;;;16.60;99.50;;;;;;5027838;28;20032;-90
2022/06/25 04:51:33;;;;;;;8.82;1.63;;;16.70;99.60;;;;;;5029337;28;20226;-90
2022/06/25 04:53:59;;;;;;;8.73;2.00;;;16.20;98.60;;;;;;5021746;28;20034;-89
2022/06/25 04:56:28;;;;;;;14.38;2.38;;;16.90;99.40;;;;;;5036906;28;20479;-90
2022/06/25 04:58:55;;;;;;;11.38;2.72;;;16.50;84.00;;;;;;5043677;28;20047;-91
2022/06/25 05:01:21;;;;;;;12.48;2.30;;;16.60;98.40;;;;;;5036329;28;20017;-89
2022/06/25 05:03:47;;;;;;;11.05;2.67;;;17.40;98.80;;;;;;5028229;28;20033;-90
2022/06/25 05:06:14;;;;;;;13.38;2.85;;;17.00;98.70;;;;;;5025458;28;20450;-90
2022/06/25 05:08:40;;;;;;;15.32;2.70;;;;;;;;;;5030993;28;20501;-90
2022/06/25 05:11:06;;;;;;;12.00;2.42;;;16.30;99.90;;;;;;5030775;28;20026;-90
2022/06/25 05:13:33;;;;;;;15.60;2.25;;;16.00;99.90;;;;;;5031768;28;20194;-90
2022/06/25 05:15:59;;;;;;;17.65;2.10;;;;;;;;;;5031459;28;20029;-89
2022/06/25 05:18:25;;;;;;;12.52;1.80;;;16.10;99.90;;;;;;5034014;28;20045;-90
2022/06/25 05:20:52;;;;;;;12.23;1.63;;;15.90;91.60;;;;;;5031356;28;20025;-90
2022/06/25 05:23:17;;;;;;;10.40;2.00;;;16.10;99.90;;;;;;5030262;28;20029;-92
2022/06/25 05:25:43;;;;;;;13.60;2.35;;;16.90;99.90;;;;;;5027564;28;20578;-90
2022/06/25 05:28:09;;;;;;;18.35;2.05;;;16.00;99.90;;;;;;5032248;28;20031;-89
2022/06/25 05:30:35;;;;;;;17.20;2.45;;;;;;;;;;5029496;28;20043;-88
2022/06/25 05:33:02;;;;;;;20.13;2.33;;;;;;;;;;5027241;28;20025;-89
2022/06/25 05:35:28;;;;;;;12.30;1.85;;;;;;;;;;5026693;28;20076;-82
2022/06/25 05:37:54;;;;;;;16.65;2.20;;;16.50;99.90;;;;;;5023052;28;20021;-84
2022/06/25 05:40:20;;;;;;;17.38;2.30;;;;;;;;;;5021153;28;20048;-88
2022/06/25 05:42:46;;;;;;;20.60;2.47;;;;;;;;;;5026689;28;20025;-77
2022/06/25 05:45:12;;;;;;;22.92;2.50;;;16.40;99.90;;;;;;5044279;28;20086;-84
2022/06/25 05:47:38;;;;;;;14.23;2.60;;;;;;;;;;5033976;28;20033;-83
2022/06/25 05:50:05;;;;;;;15.60;2.40;;;16.60;90.10;;;;;;5027588;28;20091;-84
2022/06/25 05:52:31;;;;;;;18.63;2.08;;;16.50;99.90;;;;;;5027681;28;20033;-78
2022/06/25 05:54:56;;;;;;;14.23;2.25;;;16.50;99.90;;;;;;5028071;28;20064;-87
2022/06/25 05:57:22;;;;;;;19.48;2.22;;;;;;;;;;5028107;28;20052;-83
2022/06/25 05:59:48;;;;;;;11.88;2.03;;;;;;;;;;5026453;28;20401;-87
2022/06/25 06:02:14;;;;;;;16.33;2.38;;;17.00;99.90;;;;;;5035278;28;20021;-85
2022/06/25 06:04:40;;;;;;;11.43;2.20;;;16.50;97.00;;;;;;5034449;28;20037;-84
2022/06/25 06:07:06;;;;;;;16.30;2.55;;;16.50;99.90;;;;;;5020386;28;20439;-84
2022/06/25 06:09:32;;;;;;;15.93;2.78;;;16.90;99.90;;;;;;5044672;28;20480;-83
2022/06/25 06:11:58;;;;;;;18.98;3.47;;;16.50;90.00;;;;;;5030690;28;20083;-84
2022/06/25 06:14:25;;;;;;;20.52;3.13;;;16.10;99.90;;;;;;5026398;28;20044;-84
2022/06/25 06:16:51;;;;;;;16.75;2.83;;;;;;;;;;5031482;28;20021;-86
2022/06/25 06:19:17;;;;;;;16.67;2.92;;;;;;;;;;5025879;28;20455;-81
2022/06/25 06:21:44;;;;;;;19.95;2.55;;;16.70;89.40;;;;;;5027515;28;20056;-82
2022/06/25 06:24:10;;;;;;;13.98;2.08;;;;;;;;;;5028822;28;20033;-81
2022/06/25 06:26:36;;;;;;;17.08;2.05;;;17.30;99.90;;;;;;5031726;28;20515;-84
2022/06/25 06:29:02;;;;;;;12.30;2.28;;;16.60;99.90;;;;;;5032892;28;20034;-84
2022/06/25 06:31:28;;;;;;;13.73;2.13;;;;;;;;;;5027441;28;20026;-83
2022/06/25 06:33:54;;;;;;;20.50;2.50;;;;;;;;;;5043329;28;20047;-82
2022/06/25 06:36:20;;;;;;;16.48;2.20;;;;;;;;;;5030853;28;20029;-82
2022/06/25 06:38:46;;;;;;;15.38;2.00;;;17.40;99.90;;;;;;5031377;28;20039;-84
2022/06/25 06:41:16;;;;;;;13.73;2.35;;;17.00;99.90;;;;;;5024126;28;20091;-78
2022/06/25 06:43:42;;;;;;;;;;;16.80;90.80;;;;;;5031437;28;20051;-86
2022/06/25 06:46:08;;;;;;;15.80;2.50;;;16.90;94.40;;;;;;5019783;28;19912;-82
2022/06/25 06:48:34;;;;;;;21.15;2.75;;;;;;;;;;5018904;28;20489;-83
2022/06/25 06:51:00;;;;;;;20.33;2.95;;;;;;;;;;5025117;28;20013;-88
2022/06/25 06:53:26;;;;;;;14.20;2.35;;;;;;;;;;5023998;28;20029;-84
2022/06/25 06:55:52;;;;;;;17.75;2.55;;;17.70;99.90;;;;;;5019529;28;20026;-85
2022/06/25 06:58:18;;;;;;;17.08;2.70;;;;;;;;;;5017787;28;20509;-83
2022/06/25 07:00:44;;;;;;;14.88;2.15;;;17.20;99.90;;;;;;5022688;28;20508;-84
2022/06/25 07:03:10;;;;;;;12.60;2.60;;;18.00;99.90;;;;;;5029968;28;20030;-87
2022/06/25 07:05:36;;;;;;;20.75;3.40;;;;;;;;;;5025044;28;20030;-88
2022/06/25 07:08:01;;;;;;;15.48;2.53;;;18.10;99.90;;;;;;5023749;28;20025;-88
2022/06/25 07:10:28;;;;;;;17.70;3.40;;;17.50;99.90;;;;;;5026034;28;20044;-87
2022/06/25 07:12:54;;;;;;;14.38;2.13;;;;;;;;;;5028856;28;20030;-86
2022/06/25 07:15:20;;;;;;;11.85;2.60;;;;;;;;;;5024080;28;20030;-80
2022/06/25 07:17:46;;;;;;;14.07;2.95;;;17.40;99.90;;;;;;5025017;28;20505;-86
2022/06/25 07:20:11;;;;;;;20.60;4.13;;;17.90;95.70;;;;;;5027063;28;20521;-89
2022/06/25 07:22:37;;;;;;;16.48;2.33;;;17.70;99.80;;;;;;5027116;28;20048;-90
2022/06/25 07:25:03;;;;;;;15.68;2.92;;;18.00;92.80;;;;;;5022920;28;20101;-92
2022/06/25 07:27:30;;;;;;;11.30;2.20;;;;;;;;;;5031495;28;20064;-87
2022/06/25 07:29:56;;;;;;;13.18;2.20;;;;;;;;;;5031878;28;20025;-81
2022/06/25 07:32:22;;;;;;;13.57;2.33;;;;;;;;;;5033240;28;20033;-85
2022/06/25 07:34:48;;;;;;;11.73;2.20;;;;;;;;;;5028298;28;20120;-79
2022/06/25 07:37:14;;;;;;;13.23;2.17;;;;;;;;;;5028822;28;20037;-80
2022/06/25 07:39:40;;;;;;;13.30;2.13;;;;;;;;;;5027146;28;20068;-80
2022/06/25 07:42:07;;;;;;;14.38;2.35;;;19.10;96.80;;;;;;5035630;28;20071;-79
2022/06/25 07:44:33;;;;;;;10.55;2.13;;;19.30;97.30;;;;;;5025171;28;20041;-85
2022/06/25 07:46:58;;;;;;;18.30;2.33;;;20.00;96.10;;;;;;5028982;28;20022;-89
2022/06/25 07:49:25;;;;;;;9.80;1.80;;;19.70;95.90;;;;;;5029533;28;20029;-81
2022/06/25 07:51:57;;;;;;;13.75;2.28;;;19.80;95.90;;;;;;5037552;28;20027;-90
2022/06/25 07:54:35;;;;;;;14.02;2.13;;;19.70;95.30;;;;;;5033198;28;20072;-82
2022/06/25 07:57:01;;;;;;;19.15;2.25;;;;;;;;;;5030752;28;20026;-80
2022/06/25 07:59:27;;;;;;;13.63;1.67;;;;;;;;;;5025667;28;20045;-79
2022/06/25 08:01:53;;;;;;;14.35;2.03;;;;;;;;;;5018409;28;20382;-86
2022/06/25 08:04:19;;;;;;;18.58;2.53;;;20.30;93.30;;;;;;5025177;28;20113;-78
2022/06/25 08:06:46;;;;;;;12.27;2.60;;;20.80;92.40;;;;;;5031341;28;20112;-83
2022/06/25 08:09:12;;;;;;;12.88;1.90;;;20.90;91.80;;;;;;5034477;28;20033;-89
2022/06/25 08:11:37;;;;;;;17.55;2.40;;;19.90;91.20;;;;;;5023409;28;20033;-83
2022/06/25 08:14:04;;;;;;;13.90;2.10;;;20.20;68.00;;;;;;5027855;28;20037;-85
2022/06/25 08:16:30;;;;;;;13.02;2.30;;;20.00;91.00;;;;;;5026986;28;20105;-86
2022/06/25 08:18:56;;;;;;;11.98;2.05;;;20.10;66.40;;;;;;5027514;28;20132;-86
2022/06/25 08:21:21;;;;;;;10.13;1.90;;;19.80;90.70;;;;;;5030254;28;20115;-87
2022/06/25 08:23:47;;;;;;;12.75;2.20;;;19.80;67.20;;;;;;5024311;28;20061;-87
2022/06/25 08:26:15;;;;;;;13.65;1.88;;;;;;;;;;5021484;28;20037;-87
2022/06/25 08:28:42;;;;;;;16.38;2.20;;;19.60;67.00;;;;;;5026935;28;20043;-88
2022/06/25 08:31:08;;;;;;;13.30;1.92;;;;;;;;;;5023563;28;20106;-79
2022/06/25 08:33:34;;;;;;;14.23;2.15;;;20.20;91.00;;;;;;5029487;28;20029;-81
2022/06/25 08:35:59;;;;;;;14.90;2.17;;;20.50;92.20;;;;;;5026095;28;20096;-79
2022/06/25 08:38:25;;;;;;;12.43;2.05;;;;;;;;;;5025592;28;20064;-83
2022/06/25 08:40:59;;;;;;;17.42;2.20;;;20.00;90.80;;;;;;5021774;28;20059;-78
2022/06/25 08:43:26;;;;;;;14.80;1.95;;;;;;;;;;5022791;28;20036;-84
2022/06/25 08:45:53;;;;;;;13.85;1.80;;;19.80;92.30;;;;;;5031293;28;20510;-79
2022/06/25 08:48:30;;;;;;;10.85;2.05;;;19.10;66.10;;;;;;5024863;28;20056;-79
2022/06/25 08:50:56;;;;;;;12.93;2.30;;;19.10;67.60;;;;;;5028906;28;20040;-79
2022/06/25 08:53:23;;;;;;;10.30;2.00;;;19.00;68.20;;;;;;5024896;28;20032;-80
2022/06/25 08:55:49;;;;;;;15.77;2.92;;;19.30;87.00;;;;;;5025335;28;20105;-80
2022/06/25 08:58:15;;;;;;;11.73;2.00;;;;;;;;;;5015641;28;20532;-80
2022/06/25 09:00:43;;;;;;;11.18;2.17;;;18.70;94.90;;;;;;5027614;28;20034;-80
2022/06/25 09:03:09;;;;;;;16.02;3.10;;;19.10;93.70;;;;;;5025637;28;20029;-80
2022/06/25 09:05:41;;;;;;;12.20;3.45;;;19.00;72.70;;;;;;5026790;28;20512;-81
2022/06/25 09:08:09;;;;;;;14.73;2.63;;;19.10;72.90;;;;;;5030032;28;20024;-81
2022/06/25 09:10:37;;;;;;;8.77;2.15;;;19.10;73.20;;;;;;5034508;28;20518;-80
2022/06/25 09:13:08;;;;;;;16.75;2.65;;;19.50;96.90;;;;;;5039422;28;20057;-80
2022/06/25 09:15:34;;;;;;;;;;;19.20;74.30;;;;;;5030073;28;20022;-80
2022/06/25 09:18:14;;;;;;;15.25;3.42;;;18.30;96.30;;;;;;5016798;28;20486;-81
2022/06/25 09:20:58;;;;;;;9.88;2.80;;;19.00;96.10;;;;;;5030923;28;20033;-80
2022/06/25 09:23:25;;;;;;;12.75;2.35;;;19.30;72.10;;;;;;5016092;28;20077;-79
2022/06/25 09:26:08;;;;;;;12.55;3.22;;;18.80;96.00;;;;;;5017303;28;20040;-79
2022/06/25 09:28:39;;;;;;;10.88;2.20;;;19.30;97.10;;;;;;5017182;28;20512;-79
2022/06/25 09:31:05;;;;;;;13.10;2.03;;;19.20;95.00;;;;;;5027216;28;20035;-77
2022/06/25 09:33:32;;;;;;;15.43;2.08;;;20.20;96.30;;;;;;5042681;28;20116;-81
2022/06/25 09:35:59;;;;;;;15.32;2.00;;;19.90;94.60;;;;;;5012540;28;20092;-79
2022/06/25 09:38:25;;;;;;;14.82;2.15;;;19.60;70.80;;;;;;5020010;28;20361;-79
2022/06/25 09:40:58;;;;;;;8.18;2.00;;;19.00;94.60;;;;;;5023885;28;20029;-79
2022/06/25 09:43:25;;;;;;;14.75;2.35;;;;;;;;;;5022049;28;20041;-78
2022/06/25 09:45:53;;;;;;;11.15;2.00;;;19.90;70.90;;;;;;5015987;28;20040;-79
2022/06/25 09:48:25;;;;;;;12.63;2.17;;;20.30;95.10;;;;;;5030420;28;20588;-79
2022/06/25 09:51:09;;;;;;;12.27;1.90;;;20.30;92.60;;;;;;5032094;28;20029;-80
2022/06/25 09:53:51;;;;;;;9.90;1.98;;;20.50;65.50;;;;;;5014103;28;20034;-80
2022/06/25 09:56:28;;;;;;;10.68;1.63;;;20.20;73.70;;;;;;5019215;28;20033;-79
2022/06/25 09:58:54;;;;;;;10.18;1.80;;;20.10;88.00;;;;;;5023869;28;20520;-78
2022/06/25 10:01:26;;;;;;;9.95;2.00;;;20.20;60.60;;;;;;5026006;28;20058;-77
2022/06/25 10:03:53;;;;;;;10.13;1.95;;;19.60;91.20;;;;;;5041391;28;20037;-78
2022/06/25 10:06:21;;;;;;;9.88;1.75;;;19.60;67.90;;;;;;5028938;28;20033;-78
2022/06/25 10:08:55;;;;;;;8.23;1.48;;;20.40;91.10;;;;;;5023468;28;20029;-79
2022/06/25 10:11:31;;;;;;;13.52;2.10;;;20.30;78.80;;;;;;5023958;28;20496;-76
2022/06/25 10:13:57;;;;;;;11.48;2.25;;;20.90;90.50;;;;;;5024081;28;20029;-83
2022/06/25 10:16:25;;;;;;;10.60;1.95;;;22.10;62.90;;;;;;5025353;28;20108;-77
2022/06/25 10:18:51;;;;;;;7.55;1.80;;;22.50;55.20;;;;;;5027750;28;20045;-75
2022/06/25 10:21:19;;;;;;;8.85;1.77;;;22.90;54.20;;;;;;5030421;28;20037;-80
2022/06/25 10:23:48;;;;;;;9.98;1.83;;;23.80;51.50;;;;;;5020443;28;20578;-80
2022/06/25 10:26:14;;;;;;;7.40;1.80;;;;;;;;;;5019971;28;20480;-77
2022/06/25 10:28:44;;;;;;;5.90;1.42;;;25.30;70.30;;;;;;5023631;28;20033;-81
2022/06/25 10:31:16;;;;;;;7.63;1.60;;;25.50;71.00;;;;;;5021976;28;20037;-82
2022/06/25 10:34:13;;;;;;;7.40;1.70;;;24.00;44.60;;;;;;5030911;28;20040;-83
2022/06/25 10:36:41;;;;;;;6.03;1.55;;;23.40;74.60;;;;;;5023043;28;20041;-81
2022/06/25 10:39:22;;;;;;;9.68;2.60;;;22.80;47.50;;;;;;5026665;28;20045;-81
2022/06/25 10:45:04;;;;;;;4.97;1.30;;;23.50;78.80;;;;;;5027072;28;20095;-83
2022/06/25 10:47:43;;;;;;;10.93;1.92;;;22.60;49.30;;;;;;5025224;28;20036;-89
2022/06/25 10:50:20;;;;;;;6.35;1.88;;;23.30;53.60;;;;;;5026715;28;20553;-76
2022/06/25 10:53:01;;;;;;;8.77;2.38;;;24.70;73.70;;;;;;5024263;28;20034;-79
2022/06/25 10:55:30;;;;;;;11.75;2.17;;;23.30;75.30;;;;;;5026303;28;20033;-88
2022/06/25 10:58:21;;;;;;;7.30;1.80;;;24.00;74.50;;;;;;5023652;28;20109;-85
2022/06/25 11:00:49;;;;;;;9.52;1.80;;;25.30;70.00;;;;;;5024139;28;20112;-80
2022/06/25 11:03:16;;;;;;;6.85;2.30;;;25.00;43.50;;;;;;5029149;28;20305;-76
2022/06/25 11:05:44;;;;;;;7.05;1.80;;;25.60;70.50;;;;;;5023657;28;20155;-75
2022/06/25 11:08:11;;;;;;;8.98;2.08;;;26.00;69.20;;;;;;5024615;28;20117;-82
2022/06/25 11:10:39;;;;;;;7.60;1.50;;;25.10;69.00;;;;;;5027340;28;20029;-78
2022/06/25 11:13:05;;;;;;;11.32;1.80;;;24.40;73.60;;;;;;5023705;28;20531;-79
2022/06/25 11:15:41;;;;;;;8.68;1.80;;;24.10;62.20;;;;;;5025064;28;20017;-78
2022/06/25 11:18:14;;;;;;;8.07;1.88;;;23.00;77.90;;;;;;5021924;28;20176;-75
2022/06/25 11:20:41;;;;;;;10.23;1.90;;;23.90;58.00;;;;;;5033268;28;20022;-82
2022/06/25 11:23:11;;;;;;;7.03;2.00;;;26.10;39.70;;;;;;5029264;28;20048;-85
2022/06/25 11:28:48;;;;;;;9.20;2.05;;;29.10;32.60;;;;;;5021317;28;20482;-75
2022/06/25 11:31:17;;;;;;;8.73;2.00;;;29.20;31.50;;;;;;5026473;28;20032;-81
2022/06/25 11:33:43;;;;;;;6.85;1.55;;;28.40;32.80;;;;;;5039752;28;20032;-80
2022/06/25 11:36:14;;;;;;;8.30;2.00;;;27.20;75.70;;;;;;5030192;28;20511;-80
2022/06/25 11:38:43;;;;;;;6.65;2.00;;;26.40;71.70;;;;;;5028968;28;20044;-78
2022/06/25 11:41:38;;;;;;;8.57;1.98;;;26.00;64.00;;;;;;5029717;28;20033;-76
2022/06/25 11:44:05;;;;;;;12.25;2.47;;;23.80;44.10;;;;;;5017952;28;20067;-81
2022/06/25 11:46:34;;;;;;;9.07;2.20;;;23.20;47.00;;;;;;5025438;28;20038;-83
2022/06/25 11:49:03;;;;;;;10.90;2.17;;;23.50;90.70;;;;;;5030298;28;20467;-80
2022/06/25 11:51:30;;;;;;;10.00;2.33;;;22.60;92.00;;;;;;5029059;28;20086;-80
2022/06/25 11:53:56;;;;;;;16.55;3.15;;;;;;;;;;5020969;28;20030;-84
2022/06/25 11:56:22;;;;;;;9.10;2.40;;;;;;;;;;5022366;28;20458;-80
2022/06/25 11:58:49;;;;;;;8.55;2.50;;;21.50;61.90;;;;;;5029224;28;20541;-84
2022/06/25 12:01:15;;;;;;;11.88;2.47;;;;;;;;;;5027594;28;20117;-84
2022/06/25 12:03:41;;;;;;;10.70;2.35;;;;;;;;;;5028077;28;20037;-86
2022/06/25 12:06:07;;;;;;;8.05;2.00;;;;;;;;;;5017610;28;20014;-83
2022/06/25 12:08:33;;;;;;;11.27;2.40;;;;;;;;;;5026889;28;20446;-83
2022/06/25 12:11:01;;;;;;;8.93;2.40;;;20.90;64.80;;;;;;5030564;28;20029;-82
2022/06/25 12:13:29;;;;;;;6.97;2.05;;;20.90;66.70;;;;;;5028991;28;20025;-82
2022/06/25 12:16:04;;;;;;;9.98;2.10;;;20.90;99.90;;;;;;5017746;28;20025;-83
2022/06/25 12:18:39;;;;;;;9.00;1.92;;;20.50;67.50;;;;;;5026600;28;20091;-86
2022/06/25 12:21:06;;;;;;;6.72;2.05;;;20.50;69.00;;;;;;5035074;28;20029;-84
2022/06/25 12:23:59;;;;;;;8.57;2.25;;;20.20;99.90;;;;;;5029136;28;20095;-80
2022/06/25 12:26:30;;;;;;;10.32;2.28;;;20.20;69.80;;;;;;5027284;28;20132;-81
2022/06/25 12:29:06;;;;;;;7.75;1.80;;;19.90;66.50;;;;;;5028145;28;20029;-79
2022/06/25 12:31:32;;;;;;;7.63;2.13;;;20.10;97.20;;;;;;5024647;28;20030;-81
2022/06/25 12:34:04;;;;;;;7.00;1.80;;;20.10;67.50;;;;;;5038690;28;20025;-81
2022/06/25 12:36:30;;;;;;;9.30;2.10;;;;;;;;;;5028489;28;20034;-80
2022/06/25 12:38:56;;;;;;;17.70;2.60;;;;;;;;;;5028559;28;20045;-78
2022/06/25 12:41:45;;;;;;;8.60;2.28;;;20.60;65.90;;;;;;5024626;28;20618;-79
2022/06/25 12:44:14;;;;;;;7.85;2.22;;;20.60;97.50;;;;;;5019388;28;20026;-80
2022/06/25 12:46:40;;;;;;;6.88;1.75;;;23.50;64.50;;;;;;5028061;28;20087;-75
2022/06/25 12:49:06;;;;;;;7.72;2.38;;;;;;;;;;5026821;28;20021;-80
2022/06/25 12:51:32;;;;;;;5.25;1.80;;;;;;;;;;5026855;28;20029;-79
2022/06/25 12:53:59;;;;;;;8.65;1.80;;;;;;;;;;5034705;28;20029;-83
2022/06/25 12:56:25;;;;;;;6.85;1.90;;;;;;;;;;5027849;28;20382;-80
2022/06/25 12:58:51;;;;;;;8.57;1.70;;;;;;;;;;5028245;28;20512;-80
2022/06/25 13:01:27;;;;;;;8.35;1.30;;;23.10;91.50;;;;;;5028231;28;20525;-78
2022/06/25 13:03:54;;;;;;;5.55;1.20;;;;;;;;;;5039487;28;20034;-79
2022/06/25 13:06:20;;;;;;;9.90;1.73;;;;;;;;;;5029721;28;20515;-77
2022/06/25 13:08:47;;;;;;;6.90;1.75;;;24.20;49.00;;;;;;5026672;28;20400;-79
2022/06/25 13:11:20;;;;;;;6.22;1.60;;;24.40;46.90;;;;;;5028519;28;20018;-78
2022/06/25 13:13:46;;;;;;;8.02;1.70;;;24.70;46.40;;;;;;5025819;28;20033;-78
2022/06/25 13:16:13;;;;;;;6.70;1.80;;;24.50;47.00;;;;;;5027566;28;20039;-77
2022/06/25 13:18:40;;;;;;;8.00;1.92;;;24.60;45.90;;;;;;5027417;28;20053;-77
2022/06/25 13:21:06;;;;;;;9.90;2.20;;;24.50;46.50;;;;;;5033882;28;20060;-76
2022/06/25 13:23:32;;;;;;;8.40;2.03;;;24.60;46.50;;;;;;5014316;28;20037;-79
2022/06/25 13:25:58;;;;;;;6.55;1.67;;;24.70;46.30;;;;;;5016810;28;20030;-77
2022/06/25 13:28:23;;;;;;;7.43;1.90;;;24.40;47.00;;;;;;5027905;28;20037;-78
2022/06/25 13:30:49;;;;;;;8.63;1.95;;;24.20;47.90;;;;;;5022280;28;20032;-77
2022/06/25 13:33:15;;;;;;;7.65;2.22;;;24.20;46.90;;;;;;5037542;28;20053;-78
2022/06/25 13:35:40;;;;;;;6.93;2.10;;;24.10;48.40;;;;;;5014962;28;20476;-79